createdAt,value
2023-03-02T00:01:05.841Z,15
2023-03-02T00:11:05.919Z,14.9
2023-03-02T00:21:05.837Z,14.9
2023-03-02T00:31:06.055Z,14.9
2023-03-02T00:41:05.812Z,14.8
2023-03-02T00:51:05.890Z,14.7
2023-03-02T01:01:06.013Z,14.7
2023-03-02T01:11:05.890Z,14.7
2023-03-02T01:21:06.022Z,14.7
2023-03-02T01:31:05.975Z,14.6
2023-03-02T01:41:06.010Z,14.6
2023-03-02T01:51:05.907Z,14.6
2023-03-02T02:01:06.068Z,14.6
2023-03-02T02:11:05.878Z,14.5
2023-03-02T02:21:05.992Z,14.5
2023-03-02T02:31:06.068Z,14.5
2023-03-02T02:41:06.099Z,14.5
2023-03-02T02:51:06.067Z,14.4
2023-03-02T03:01:06.022Z,14.4
2023-03-02T03:11:06.066Z,14.4
2023-03-02T03:21:06.080Z,14.4
2023-03-02T03:31:06.117Z,14.4
2023-03-02T03:41:05.968Z,14.3
2023-03-02T03:51:06.039Z,14.3
2023-03-02T04:01:06.209Z,14.3
2023-03-02T04:11:06.030Z,14.3
2023-03-02T04:21:06.164Z,14.3
2023-03-02T04:31:06.067Z,14.2
2023-03-02T04:41:06.266Z,14.2
2023-03-02T04:51:06.038Z,14.2
2023-03-02T05:01:06.145Z,14.2
2023-03-02T05:11:06.030Z,14.2
2023-03-02T05:21:06.161Z,14.1
2023-03-02T05:31:06.266Z,15.5
2023-03-02T05:41:06.145Z,16.4
2023-03-02T05:51:06.266Z,16
2023-03-02T06:01:06.226Z,15.6
2023-03-02T06:11:06.285Z,15.3
2023-03-02T06:21:06.224Z,15.1
2023-03-02T06:31:06.224Z,15
2023-03-02T06:41:06.340Z,15.3
2023-03-02T06:51:06.202Z,17
2023-03-02T07:01:06.349Z,16.6
2023-03-02T07:11:06.202Z,16.1
2023-03-02T07:21:06.342Z,15.7
2023-03-02T07:31:06.235Z,15.5
2023-03-02T07:41:06.311Z,15.3
2023-03-02T07:51:06.210Z,15.1
2023-03-02T08:01:06.348Z,16.9
2023-03-02T08:11:06.420Z,17
2023-03-02T08:21:06.327Z,16.5
2023-03-02T08:31:06.434Z,16.1
2023-03-02T08:41:06.322Z,15.9
2023-03-02T08:51:06.402Z,15.6
2023-03-02T09:01:06.346Z,15.5
2023-03-02T09:11:06.377Z,15.4
2023-03-02T09:21:06.302Z,15.2
2023-03-02T09:31:06.384Z,15.2
2023-03-02T09:41:06.527Z,15.2
2023-03-02T09:51:06.390Z,15.1
2023-03-02T10:01:06.494Z,15.1
2023-03-02T10:11:07.101Z,15
2023-03-02T10:21:06.548Z,15
2023-03-02T10:31:06.450Z,14.9
2023-03-02T10:41:06.542Z,14.9
2023-03-02T10:51:07.460Z,14.9
2023-03-02T11:01:06.453Z,14.9
2023-03-02T11:11:07.667Z,14.9
2023-03-02T11:21:06.470Z,14.9
2023-03-02T11:31:06.622Z,14.9
2023-03-02T11:41:07.458Z,14.8
2023-03-02T11:51:07.772Z,15
2023-03-02T12:01:07.722Z,15.1
2023-03-02T12:11:06.533Z,14.9
2023-03-02T12:21:06.740Z,14.9
2023-03-02T12:31:06.509Z,14.8
2023-03-02T12:41:06.741Z,14.8
2023-03-02T12:51:06.517Z,14.8
2023-03-02T13:01:06.766Z,14.8
2023-03-02T13:11:06.758Z,14.8
2023-03-02T13:21:06.623Z,14.8
2023-03-02T13:31:06.873Z,14.8
2023-03-02T13:41:06.589Z,15
2023-03-02T13:51:06.864Z,15.2
2023-03-02T14:01:06.623Z,15
2023-03-02T14:11:06.933Z,15
2023-03-02T14:21:07.027Z,15
2023-03-02T14:31:06.709Z,15
2023-03-02T14:41:06.809Z,15
2023-03-02T14:51:06.667Z,15.2
2023-03-02T15:01:06.803Z,15.7
2023-03-02T15:11:06.687Z,16
2023-03-02T15:21:06.791Z,16.1
2023-03-02T15:31:06.761Z,16.1
2023-03-02T15:41:06.780Z,15.7
2023-03-02T15:51:06.890Z,15.8
2023-03-02T16:01:06.860Z,15.6
2023-03-02T16:11:06.919Z,15.6
2023-03-02T16:21:06.751Z,15.5
2023-03-02T16:31:06.849Z,15.4
2023-03-02T16:41:06.776Z,15.3
2023-03-02T16:51:06.860Z,15.2
2023-03-02T17:01:07.107Z,15.1
2023-03-02T17:11:06.827Z,15.1
2023-03-02T17:21:07.045Z,15.3
2023-03-02T17:31:06.876Z,17.3
2023-03-02T17:41:06.956Z,17
2023-03-02T17:51:06.858Z,16.6
2023-03-02T18:01:06.869Z,17.1
2023-03-02T18:11:07.753Z,17.1
2023-03-02T18:21:06.875Z,16.7
2023-03-02T18:31:06.991Z,16.3
2023-03-02T18:41:06.862Z,16
2023-03-02T18:51:06.932Z,15.8
2023-03-02T19:01:07.076Z,15.8
2023-03-02T19:11:06.942Z,17
2023-03-02T19:21:07.051Z,17.7
2023-03-02T19:31:07.127Z,17.3
2023-03-02T19:41:07.056Z,16.7
2023-03-02T19:51:06.914Z,16.4
2023-03-02T20:01:08.846Z,16.1
2023-03-02T20:11:06.907Z,15.9
2023-03-02T20:21:07.072Z,15.9
2023-03-02T20:31:07.147Z,15.8
2023-03-02T20:41:07.029Z,15.5
2023-03-02T20:51:07.376Z,15.6
2023-03-02T21:01:07.329Z,15.6
2023-03-02T21:11:07.484Z,15.6
2023-03-02T21:21:07.319Z,15.4
2023-03-02T21:31:08.688Z,15.5
2023-03-02T21:41:07.206Z,15.5
2023-03-02T21:51:07.934Z,15.4
2023-03-02T22:01:09.915Z,15.4
2023-03-02T22:11:08.043Z,15.5
2023-03-02T22:21:07.615Z,15.3
2023-03-02T22:31:07.195Z,15.3
2023-03-02T22:41:07.278Z,15.2
2023-03-02T22:51:07.142Z,15.2
2023-03-02T23:01:07.317Z,15.2
2023-03-02T23:11:07.141Z,15.1
2023-03-02T23:21:07.258Z,15.1
2023-03-02T23:31:07.134Z,15.1
2023-03-02T23:41:07.259Z,15.1
2023-03-02T23:51:07.328Z,15.1
